Weather at Nashville International Airport

Public forecast

Using degrees Fahrenheit for public forecast. Weather courtesy of forecast.io.

Current aviation weather report (METAR) for Nashville International Airport

Retrieved 2021/10/23 04:53 UTC (28 minutes ago):

KBNA 230453Z 18005KT 7SM CLR 10/08 A3007 RMK AO2 SLP180 T01000078

Aviation forecast (TAF) for Nashville International Airport

Retrieved 2021-10-23 00:22 UTC (5 hours ago):

TAF KBNA 222320Z 2300/2324 29004KT P6SM BKN040 FM230300 00000KT P6SM SKC FM231500 16004KT P6SM BKN070